Time;durP1;ratioP1;P1;durP2;ratioP2;P2;SDS_P1;SDS_P2;PMS_P1;PMS_P2;Temp;Humidity;BMP_temperature;BMP_pressure;BME280_temperature;BME280_humidity;BME280_pressure;Samples;Min_cycle;Max_cycle;Signal;HPM_P1;HPM_P2
2021/08/11 00:01:42;;;;;;;;;5.00;5.00;;;;;20.78;64.14;101102.31;5015804;28;45170;-61
2021/08/11 00:04:07;;;;;;;;;5.50;4.25;;;;;20.74;64.13;101103.69;5015760;28;45428;-61
2021/08/11 00:06:32;;;;;;;;;6.75;6.25;;;;;20.70;63.65;101105.06;5030391;28;58767;-60
2021/08/11 00:08:58;;;;;;;;;5.75;5.75;;;;;20.67;63.71;101113.47;5014731;28;73200;-61
2021/08/11 00:11:23;;;;;;;;;5.25;5.00;;;;;20.64;63.67;101103.19;4998004;28;45368;-61
2021/08/11 00:13:49;;;;;;;;;6.00;6.00;;;;;20.60;64.07;101098.22;5015763;28;45344;-61
2021/08/11 00:16:14;;;;;;;;;6.75;5.00;;;;;20.58;64.25;101110.94;5015419;28;45444;-62
2021/08/11 00:18:39;;;;;;;;;7.25;5.00;;;;;20.55;64.05;101116.66;5016281;28;72929;-60
2021/08/11 00:21:05;;;;;;;;;5.00;4.00;;;;;20.56;63.96;101117.47;5018263;28;64340;-61
2021/08/11 00:23:31;;;;;;;;;4.00;4.00;;;;;20.55;64.38;101121.13;5019160;28;45440;-61
2021/08/11 00:25:56;;;;;;;;;6.50;5.00;;;;;20.54;64.53;101123.00;5018789;28;48313;-61
2021/08/11 00:28:22;;;;;;;;;5.50;5.00;;;;;20.53;64.58;101124.00;5018960;28;45329;-61
2021/08/11 00:30:48;;;;;;;;;5.25;4.00;;;;;20.53;64.34;101128.50;5018111;28;65677;-61
2021/08/11 00:33:13;;;;;;;;;5.25;4.25;;;;;20.51;64.12;101126.03;5018878;28;45392;-61
2021/08/11 00:35:38;;;;;;;;;3.00;3.00;;;;;20.50;64.23;101126.22;5017839;28;73993;-60
2021/08/11 00:38:04;;;;;;;;;3.25;3.00;;;;;20.47;64.26;101132.78;5018879;28;45355;-61
2021/08/11 00:40:30;;;;;;;;;7.25;4.00;;;;;20.44;64.63;101131.28;5018094;28;64942;-61
2021/08/11 00:42:55;;;;;;;;;2.75;2.75;;;;;20.41;64.44;101130.84;5018579;28;46520;-61
2021/08/11 00:45:21;;;;;;;;;5.00;4.00;;;;;20.37;64.36;101130.41;5017418;28;46064;-61
2021/08/11 00:47:46;;;;;;;;;3.50;3.00;;;;;20.35;64.39;101123.59;5017807;28;65204;-61
2021/08/11 00:50:11;;;;;;;;;5.75;4.50;;;;;20.30;64.83;101130.31;5017352;28;45457;-61
2021/08/11 00:52:37;;;;;;;;;7.00;4.75;;;;;20.25;65.02;101134.56;5018668;28;45289;-61
2021/08/11 00:55:02;;;;;;;;;5.00;5.00;;;;;20.21;64.76;101128.75;5018333;28;45812;-61
2021/08/11 00:57:28;;;;;;;;;2.75;2.75;;;;;20.17;64.74;101136.31;5018120;28;48203;-61
2021/08/11 00:59:55;;;;;;;;;5.75;4.25;;;;;20.13;64.88;101139.53;5017006;28;45266;-61
2021/08/11 01:02:21;;;;;;;;;3.75;3.75;;;;;20.11;65.25;101136.22;5017286;28;45427;-60
2021/08/11 01:04:47;;;;;;;;;4.00;3.00;;;;;20.10;65.26;101134.56;5016645;28;46322;-61
2021/08/11 01:07:13;;;;;;;;;4.00;4.00;;;;;20.08;64.92;101136.59;5017506;28;64136;-61
2021/08/11 01:09:38;;;;;;;;;2.00;2.00;;;;;20.07;65.35;101130.41;5000693;28;45389;-60
2021/08/11 01:12:04;;;;;;;;;3.00;2.00;;;;;20.06;65.22;101136.75;5016152;28;70723;-61
2021/08/11 01:14:29;;;;;;;;;3.00;3.00;;;;;20.07;65.38;101145.59;5016773;28;47084;-62
2021/08/11 01:16:55;;;;;;;;;3.00;2.00;;;;;20.05;65.23;101145.78;5018243;28;45237;-60
2021/08/11 01:19:20;;;;;;;;;4.00;4.00;;;;;20.06;65.38;101149.28;5017343;28;67297;-60
2021/08/11 01:21:54;;;;;;;;;4.75;3.00;;;;;20.05;65.26;101131.63;5018410;28;45204;-62
2021/08/11 01:24:26;;;;;;;;;5.50;3.00;;;;;20.05;65.40;101136.97;5017991;28;50140;-60
2021/08/11 01:27:28;;;;;;;;;5.00;4.00;;;;;20.03;65.41;101137.13;5016904;28;45813;-60
2021/08/11 01:30:00;;;;;;;;;3.00;3.00;;;;;20.02;65.26;101143.47;5017563;28;45448;-62
2021/08/11 01:32:53;;;;;;;;;3.00;3.00;;;;;20.00;65.43;101146.34;5018107;28;45361;-61
2021/08/11 01:35:19;;;;;;;;;3.50;3.50;;;;;19.97;65.10;101138.69;5017902;28;45334;-61
2021/08/11 01:37:44;;;;;;;;;2.00;2.00;;;;;19.97;65.76;101129.84;5017511;28;45776;-61
2021/08/11 01:40:11;;;;;;;;;3.00;3.00;;;;;19.93;65.83;101129.41;5016486;28;47421;-61
2021/08/11 01:42:38;;;;;;;;;2.00;2.00;;;;;19.91;65.28;101130.59;5017854;28;45779;-61
2021/08/11 01:45:06;;;;;;;;;4.00;2.25;;;;;19.91;65.65;101127.91;5017495;28;50375;-61
2021/08/11 01:47:44;;;;;;;;;4.50;3.50;;;;;19.88;66.03;101126.44;5016554;28;45381;-60
2021/08/11 01:50:11;;;;;;;;;2.25;2.25;;;;;19.85;65.68;101124.13;5016586;28;45258;-60
2021/08/11 01:52:40;;;;;;;;;2.50;2.50;;;;;19.81;65.76;101126.34;5000324;28;45603;-61
2021/08/11 01:55:08;;;;;;;;;3.00;3.00;;;;;19.79;65.68;101123.03;5000380;28;46020;-61
2021/08/11 01:57:33;;;;;;;;;2.25;2.25;;;;;19.75;65.58;101118.22;5016227;28;50547;-61
2021/08/11 01:59:58;;;;;;;;;4.25;4.00;;;;;19.70;66.04;101114.28;4999080;28;53726;-60
2021/08/11 02:02:24;;;;;;;;;6.00;3.75;;;;;19.68;66.19;101116.28;4998864;28;70463;-61
2021/08/11 02:04:49;;;;;;;;;2.00;2.00;;;;;19.66;66.03;101117.50;5017159;28;46033;-61
2021/08/11 02:07:14;;;;;;;;;3.00;3.00;;;;;19.61;65.83;101115.34;5016493;28;62909;-61
2021/08/11 02:09:40;;;;;;;;;3.00;3.00;;;;;19.59;65.71;101112.06;4998861;28;64750;-61
2021/08/11 02:12:05;;;;;;;;;2.75;2.75;;;;;19.58;65.63;101113.09;5015361;28;68927;-60
2021/08/11 02:14:31;;;;;;;;;3.00;3.00;;;;;19.55;65.73;101118.78;5017162;28;45980;-62
2021/08/11 02:16:56;;;;;;;;;3.25;2.50;;;;;19.53;65.50;101110.13;5016029;28;45273;-61
2021/08/11 02:19:21;;;;;;;;;4.25;4.25;;;;;19.51;65.44;101109.47;4998548;28;66031;-61
2021/08/11 02:21:47;;;;;;;;;4.50;3.00;;;;;19.49;65.48;101114.16;5016858;28;53543;-60
2021/08/11 02:24:13;;;;;;;;;4.00;3.00;;;;;19.46;65.81;101109.19;5017114;28;45872;-60
2021/08/11 02:26:43;;;;;;;;;3.00;2.75;;;;;19.42;65.93;101114.88;5015404;28;59387;-60
2021/08/11 02:29:16;;;;;;;;;2.50;2.50;;;;;19.39;65.47;101109.06;5015895;28;46437;-60
2021/08/11 02:31:58;;;;;;;;;3.75;3.00;;;;;19.33;65.52;101107.97;5015799;28;45437;-61
2021/08/11 02:34:53;;;;;;;;;3.00;2.25;;;;;19.26;65.65;101105.22;5015746;28;48620;-61
2021/08/11 02:37:21;;;;;;;;;3.00;3.00;;;;;19.22;65.93;101105.72;5016880;28;45880;-61
2021/08/11 02:40:07;;;;;;;;;3.00;3.00;;;;;19.18;65.83;101110.59;5015668;28;45447;-60
2021/08/11 02:42:42;;;;;;;;;4.50;3.00;;;;;19.15;65.99;101107.44;5016685;28;45417;-61
2021/08/11 02:45:10;;;;;;;;;4.00;3.00;;;;;19.09;65.75;101104.50;5015397;28;47035;-60
2021/08/11 02:47:35;;;;;;;;;3.00;2.25;;;;;19.08;66.15;101104.69;4999016;28;45713;-60
2021/08/11 02:50:00;;;;;;;;;2.25;2.25;;;;;19.04;66.47;101106.88;5015721;28;45711;-60
2021/08/11 02:52:26;;;;;;;;;2.50;2.00;;;;;19.00;66.20;101102.06;4998229;28;66532;-61
2021/08/11 02:54:51;;;;;;;;;2.25;2.00;;;;;18.93;66.06;101110.75;5015384;28;46413;-60
2021/08/11 02:57:17;;;;;;;;;3.00;3.00;;;;;18.92;66.51;101110.94;4998053;28;64734;-60
2021/08/11 02:59:43;;;;;;;;;2.00;2.00;;;;;18.90;66.29;101099.63;5015401;28;45408;-61
2021/08/11 03:02:08;;;;;;;;;4.00;3.00;;;;;18.89;66.22;101105.97;4997995;28;69599;-61
2021/08/11 03:04:34;;;;;;;;;4.00;3.75;;;;;18.86;66.15;101101.00;5015423;28;75556;-61
2021/08/11 03:06:59;;;;;;;;;3.00;2.00;;;;;18.84;66.46;101106.47;5015267;28;45423;-61
2021/08/11 03:09:24;;;;;;;;;2.25;2.25;;;;;18.80;66.03;101098.03;5014749;28;63999;-60
2021/08/11 03:11:50;;;;;;;;;4.50;3.00;;;;;18.79;65.80;101101.69;5015235;28;45519;-60
2021/08/11 03:14:15;;;;;;;;;2.50;2.50;;;;;18.79;65.50;101106.19;5015257;28;46149;-62
2021/08/11 03:16:40;;;;;;;;;6.00;3.00;;;;;18.77;66.13;101100.22;5014410;28;67853;-60
2021/08/11 03:19:06;;;;;;;;;4.75;4.00;;;;;18.77;66.22;101113.53;5015559;28;64536;-60
2021/08/11 03:21:32;;;;;;;;;3.00;3.00;;;;;18.75;66.40;101105.72;5016477;28;45538;-61
2021/08/11 03:23:58;;;;;;;;;2.50;2.50;;;;;18.73;66.27;101102.41;5016277;28;45636;-60
2021/08/11 03:26:23;;;;;;;;;3.25;2.00;;;;;18.71;66.09;101109.72;5015242;28;73318;-60
2021/08/11 03:28:48;;;;;;;;;4.50;3.50;;;;;18.67;66.12;101116.41;5015629;28;60157;-61
2021/08/11 03:31:14;;;;;;;;;4.00;2.50;;;;;18.64;65.82;101111.44;5015337;28;69352;-61
2021/08/11 03:33:39;;;;;;;;;3.25;3.25;;;;;18.61;66.01;101119.75;5015134;28;70406;-60
2021/08/11 03:36:05;;;;;;;;;2.75;2.00;;;;;18.59;65.89;101113.78;5016141;28;45284;-61
2021/08/11 03:38:30;;;;;;;;;2.25;2.25;;;;;18.56;65.98;101116.78;5016335;28;45220;-61
2021/08/11 03:40:55;;;;;;;;;2.00;2.00;;;;;18.53;65.67;101126.81;5016195;28;45666;-61
2021/08/11 03:43:21;;;;;;;;;4.00;3.50;;;;;18.53;66.06;101126.81;5014932;28;69984;-60
2021/08/11 03:45:46;;;;;;;;;3.00;2.75;;;;;18.54;66.27;101124.97;5015039;28;69758;-61
2021/08/11 03:48:12;;;;;;;;;3.00;3.00;;;;;18.50;66.42;101121.00;5015163;28;66646;-61
2021/08/11 03:50:37;;;;;;;;;3.00;3.00;;;;;18.49;66.57;101128.16;5016000;28;45464;-61
2021/08/11 03:53:03;;;;;;;;;3.75;3.75;;;;;18.47;66.33;101124.84;5017598;28;69350;-61
2021/08/11 03:55:31;;;;;;;;;4.00;3.00;;;;;18.44;66.18;101127.84;5019333;28;45270;-60
2021/08/11 03:57:57;;;;;;;;;3.75;2.50;;;;;18.43;66.42;101128.84;5019137;28;45399;-61
2021/08/11 04:00:23;;;;;;;;;3.00;2.50;;;;;18.44;66.28;101129.66;5019434;28;45451;-61
2021/08/11 04:02:48;;;;;;;;;3.25;2.25;;;;;18.45;66.67;101132.16;5018161;28;72880;-61
2021/08/11 04:05:14;;;;;;;;;2.50;2.50;;;;;18.44;66.44;101127.00;5018338;28;72742;-61
2021/08/11 04:07:39;;;;;;;;;4.75;4.00;;;;;18.44;66.76;101132.31;5019463;28;45225;-60
2021/08/11 04:10:07;;;;;;;;;7.50;4.00;;;;;18.42;67.28;101127.19;5019333;28;45391;-61
2021/08/11 04:12:32;;;;;;;;;3.50;3.50;;;;;18.42;66.98;101126.34;5019212;28;47025;-61
2021/08/11 04:14:58;;;;;;;;;3.00;3.00;;;;;18.44;67.26;101133.16;5019200;28;45254;-61
2021/08/11 04:17:23;;;;;;;;;3.00;2.75;;;;;18.44;67.81;101127.84;5019218;28;45360;-60
2021/08/11 04:19:48;;;;;;;;;4.00;4.00;;;;;18.45;67.97;101137.50;5019096;28;45229;-60
2021/08/11 04:22:14;;;;;;;;;4.00;3.75;;;;;18.46;67.99;101136.50;5018504;28;67207;-61
2021/08/11 04:24:39;;;;;;;;;4.00;3.00;;;;;18.48;67.79;101134.47;5019080;28;45264;-61
2021/08/11 04:27:04;;;;;;;;;4.00;3.00;;;;;18.49;67.73;101138.81;5018359;28;65760;-61
2021/08/11 04:29:30;;;;;;;;;3.00;3.00;;;;;18.50;67.59;101135.16;5018668;28;51684;-61
2021/08/11 04:31:55;;;;;;;;;4.25;3.50;;;;;18.50;67.40;101132.47;5018008;28;69295;-60
2021/08/11 04:34:21;;;;;;;;;5.50;4.75;;;;;18.54;67.60;101140.94;5017850;28;70650;-59
2021/08/11 04:36:46;;;;;;;;;3.50;3.00;;;;;18.54;67.72;101140.94;5018928;28;45323;-60
2021/08/11 04:39:11;;;;;;;;;4.00;4.00;;;;;18.57;67.97;101140.59;5017906;28;69459;-61
2021/08/11 04:41:37;;;;;;;;;3.00;3.00;;;;;18.59;67.93;101143.06;5017600;28;74939;-61
2021/08/11 04:44:03;;;;;;;;;3.00;3.00;;;;;18.60;67.71;101155.34;5017779;28;68177;-60
2021/08/11 04:46:28;;;;;;;;;3.25;3.25;;;;;18.59;67.66;101153.69;5018436;28;45355;-61
2021/08/11 04:48:54;;;;;;;;;4.00;4.00;;;;;18.58;67.74;101155.56;5017403;28;45404;-61
2021/08/11 04:51:20;;;;;;;;;3.00;3.00;;;;;18.54;68.05;101156.91;5018598;28;46172;-62
2021/08/11 04:53:46;;;;;;;;;3.25;3.25;;;;;18.52;68.25;101154.44;5018968;28;45402;-61
2021/08/11 04:56:11;;;;;;;;;2.00;2.00;;;;;18.52;68.27;101157.09;5017923;28;64485;-61
2021/08/11 04:58:37;;;;;;;;;4.50;3.00;;;;;18.52;68.58;101151.75;5017662;28;70428;-61
2021/08/11 05:01:02;;;;;;;;;4.00;4.00;;;;;18.54;68.70;101155.09;5017788;28;46084;-60
2021/08/11 05:03:27;;;;;;;;;4.00;4.00;;;;;18.55;68.70;101155.91;5015182;28;60342;-61
2021/08/11 05:05:53;;;;;;;;;3.00;3.00;;;;;18.57;68.36;101155.72;5017819;28;57192;-61
2021/08/11 05:08:18;;;;;;;;;4.50;2.50;;;;;18.56;68.25;101160.22;5017685;28;62232;-60
2021/08/11 05:10:43;;;;;;;;;2.00;2.00;;;;;18.59;68.11;101151.03;5017367;28;71478;-61
2021/08/11 05:13:09;;;;;;;;;7.00;6.75;;;;;18.60;68.10;101150.03;5017636;28;65143;-61
2021/08/11 05:15:34;;;;;;;;;5.25;5.00;;;;;18.62;68.13;101153.34;5018390;28;45234;-60
2021/08/11 05:18:00;;;;;;;;;4.50;4.00;;;;;18.64;68.23;101159.34;5017090;28;67207;-60
2021/08/11 05:20:25;;;;;;;;;4.75;3.50;;;;;18.66;68.22;101167.97;5017255;28;69755;-61
2021/08/11 05:22:50;;;;;;;;;4.25;3.25;;;;;18.68;68.36;101164.16;5018115;28;45409;-61
2021/08/11 05:25:16;;;;;;;;;5.00;4.50;;;;;18.71;68.65;101172.78;5017303;28;57908;-60
2021/08/11 05:27:42;;;;;;;;;4.00;4.00;;;;;18.70;68.26;101171.94;5017397;28;60937;-61
2021/08/11 05:30:08;;;;;;;;;4.00;4.00;;;;;18.72;68.41;101169.13;5017896;28;49574;-61
2021/08/11 05:32:33;;;;;;;;;12.50;10.00;;;;;18.72;68.71;101164.63;5017641;28;45845;-61
2021/08/11 05:34:59;;;;;;;;;4.00;3.50;;;;;18.76;69.07;101173.91;5017895;28;45305;-60
2021/08/11 05:37:24;;;;;;;;;4.00;4.00;;;;;18.77;69.03;101183.56;5017268;28;60113;-60
2021/08/11 05:39:50;;;;;;;;;5.75;5.75;;;;;18.79;69.34;101178.91;5016278;28;46334;-62
2021/08/11 05:42:15;;;;;;;;;11.25;10.50;;;;;18.79;69.47;101184.22;5016734;28;73126;-60
2021/08/11 05:44:41;;;;;;;;;6.00;5.75;;;;;18.81;69.92;101186.72;5017784;28;45468;-60
2021/08/11 05:47:07;;;;;;;;;5.00;5.00;;;;;18.83;69.63;101193.53;5017780;28;45419;-61
2021/08/11 05:49:35;;;;;;;;;5.00;5.00;;;;;18.86;69.84;101183.53;5017196;28;45341;-60
2021/08/11 05:52:01;;;;;;;;;6.00;5.00;;;;;18.90;69.61;101185.66;5017445;28;45893;-60
2021/08/11 05:54:26;;;;;;;;;3.50;3.00;;;;;18.92;69.80;101186.31;5017646;28;45418;-61
2021/08/11 05:56:52;;;;;;;;;4.25;4.00;;;;;18.96;70.08;101192.16;5016585;28;68175;-61
2021/08/11 05:59:17;;;;;;;;;5.75;4.75;;;;;19.01;69.80;101195.13;5017084;28;46855;-61
2021/08/11 06:01:43;;;;;;;;;5.25;4.50;;;;;19.05;69.73;101193.78;5016616;28;70546;-60
2021/08/11 06:04:08;;;;;;;;;3.25;3.25;;;;;19.07;69.64;101194.44;5017117;28;49904;-61
2021/08/11 06:06:33;;;;;;;;;6.00;5.00;;;;;19.16;69.29;101194.34;5017267;28;45594;-60
2021/08/11 06:08:59;;;;;;;;;4.50;4.50;;;;;19.20;69.17;101203.63;5016896;28;59496;-61
2021/08/11 06:11:24;;;;;;;;;5.25;4.75;;;;;19.27;69.41;101202.78;5016918;28;47512;-61
2021/08/11 06:13:50;;;;;;;;;5.00;4.00;;;;;19.36;69.33;101203.53;5016619;28;61213;-60
2021/08/11 06:16:15;;;;;;;;;6.50;5.00;;;;;19.45;68.58;101204.28;5015352;28;63809;-61
2021/08/11 06:18:40;;;;;;;;;5.50;4.25;;;;;19.54;68.50;101211.22;5015890;28;46067;-61
2021/08/11 06:21:06;;;;;;;;;5.50;4.25;;;;;19.62;68.36;101210.31;5016045;28;71023;-60
2021/08/11 06:23:31;;;;;;;;;4.00;4.00;;;;;19.70;67.80;101218.25;5016826;28;45376;-61
2021/08/11 06:25:56;;;;;;;;;4.00;4.00;;;;;19.76;67.89;101208.72;5016927;28;45505;-61
2021/08/11 06:28:22;;;;;;;;;4.00;4.00;;;;;19.87;67.77;101207.44;5015962;28;68885;-60
2021/08/11 06:30:47;;;;;;;;;5.00;5.00;;;;;19.97;67.86;101210.72;5016736;28;45329;-61
2021/08/11 06:33:13;;;;;;;;;8.75;4.00;;;;;20.08;67.45;101216.63;5016106;28;67588;-61
2021/08/11 06:35:38;;;;;;;;;7.75;5.25;;;;;20.16;67.12;101219.19;5016142;28;63687;-61
2021/08/11 06:38:03;;;;;;;;;3.50;3.00;;;;;20.21;66.44;101216.78;5015899;28;68650;-61
2021/08/11 06:40:29;;;;;;;;;5.00;4.25;;;;;20.28;66.26;101214.22;5016353;28;57960;-61
2021/08/11 06:42:54;;;;;;;;;5.00;4.00;;;;;20.37;66.07;101212.28;5016914;28;45427;-61
2021/08/11 06:45:20;;;;;;;;;3.50;3.00;;;;;20.48;65.26;101216.31;5016722;28;45482;-61
2021/08/11 06:47:45;;;;;;;;;4.00;4.00;;;;;20.58;65.15;101214.19;5030981;28;73905;-60
2021/08/11 06:50:13;;;;;;;;;2.75;2.25;;;;;20.69;65.01;101215.56;5016671;28;45356;-61
2021/08/11 06:52:38;;;;;;;;;6.75;3.75;;;;;20.79;63.99;101208.13;5016870;28;45324;-61
2021/08/11 06:55:08;;;;;;;;;7.50;4.00;;;;;20.86;63.97;101206.34;5016594;28;45448;-60
2021/08/11 06:57:33;;;;;;;;;3.00;3.00;;;;;20.89;63.26;101214.00;5016853;28;45398;-61
2021/08/11 06:59:59;;;;;;;;;3.00;3.00;;;;;20.95;63.63;101212.41;5016263;28;45288;-61
2021/08/11 07:02:24;;;;;;;;;2.50;2.25;;;;;20.99;63.13;101213.69;5016428;28;45971;-61
2021/08/11 07:04:50;;;;;;;;;2.50;2.50;;;;;21.04;62.84;101211.28;5015533;28;70555;-61
2021/08/11 07:07:15;;;;;;;;;4.00;4.00;;;;;21.14;62.50;101221.69;5016877;28;45279;-60
2021/08/11 07:09:40;;;;;;;;;0.25;0.25;;;;;21.14;62.13;101216.34;5015899;28;45307;-60
2021/08/11 07:12:06;;;;;;;;;2.00;2.00;;;;;21.18;61.74;101222.13;5016629;28;45276;-60
2021/08/11 07:14:32;;;;;;;;;1.00;1.00;;;;;21.24;61.13;101215.16;5016311;28;45329;-60
2021/08/11 07:16:57;;;;;;;;;1.25;1.25;;;;;21.25;61.64;101211.47;5016028;28;50321;-60
2021/08/11 07:19:22;;;;;;;;;1.00;1.00;;;;;21.31;61.59;101218.75;5015528;28;65768;-62
2021/08/11 07:21:48;;;;;;;;;1.00;1.00;;;;;21.38;61.09;101224.97;5015664;28;66859;-61
2021/08/11 07:24:13;;;;;;;;;1.00;1.00;;;;;21.49;60.69;101218.28;5015724;28;65415;-60
2021/08/11 07:26:39;;;;;;;;;1.00;1.00;;;;;21.61;60.79;101218.63;5014970;28;69324;-61
2021/08/11 07:29:04;;;;;;;;;24.25;23.50;;;;;21.77;60.84;101225.56;5016091;28;45397;-59
2021/08/11 07:31:29;;;;;;;;;2.00;1.00;;;;;21.92;59.75;101222.78;5016243;28;45317;-61
2021/08/11 07:33:55;;;;;;;;;0.25;0.25;;;;;22.04;59.47;101221.22;5015998;28;45381;-60
2021/08/11 07:36:20;;;;;;;;;1.25;1.25;;;;;22.19;58.66;101228.31;5014940;28;75642;-60
2021/08/11 07:38:46;;;;;;;;;2.00;0.00;;;;;22.31;58.86;101231.28;5015394;28;64117;-60
2021/08/11 07:41:11;;;;;;;;;4.00;1.00;;;;;22.42;57.95;101235.22;5015323;28;61984;-60
2021/08/11 07:43:36;;;;;;;;;2.00;2.00;;;;;22.52;58.08;101233.88;5015239;28;65770;-60
2021/08/11 07:46:02;;;;;;;;;0.00;0.00;;;;;22.65;57.38;101234.97;5015180;28;67676;-61
2021/08/11 07:48:27;;;;;;;;;1.50;1.00;;;;;22.79;57.06;101234.00;5015940;28;45296;-60
2021/08/11 07:50:52;;;;;;;;;1.75;1.00;;;;;22.92;55.50;101235.88;5015451;28;57035;-60
2021/08/11 07:53:18;;;;;;;;;1.00;1.00;;;;;23.02;54.91;101226.66;5014915;28;67948;-60
2021/08/11 07:55:43;;;;;;;;;1.50;1.00;;;;;23.13;55.31;101231.41;5014559;28;71694;-60
2021/08/11 07:58:08;;;;;;;;;1.50;1.50;;;;;23.29;54.76;101232.09;5015130;28;62417;-61
2021/08/11 08:00:34;;;;;;;;;0.50;0.50;;;;;23.42;54.73;101237.47;5015703;28;45353;-60
2021/08/11 08:02:59;;;;;;;;;3.50;3.50;;;;;23.55;54.18;101236.69;5014872;28;63600;-60
2021/08/11 08:05:25;;;;;;;;;2.25;2.00;;;;;23.70;52.87;101233.78;5015498;28;48889;-60
2021/08/11 08:07:50;;;;;;;;;2.75;2.00;;;;;23.82;52.37;101233.97;5014850;28;65670;-60
2021/08/11 08:10:15;;;;;;;;;1.00;1.00;;;;;23.93;52.06;101229.81;5015618;28;45336;-61
2021/08/11 08:12:43;;;;;;;;;2.75;2.00;;;;;24.02;52.15;101233.97;5015661;28;45351;-60
2021/08/11 08:15:08;;;;;;;;;2.00;2.00;;;;;24.08;50.66;101227.78;5015588;28;45342;-60
2021/08/11 08:17:34;;;;;;;;;3.00;2.00;;;;;24.19;51.08;101228.19;5014090;28;45412;-61
2021/08/11 08:19:59;;;;;;;;;2.50;2.50;;;;;24.30;51.07;101217.59;5015226;28;54059;-61
2021/08/11 08:22:25;;;;;;;;;2.50;2.00;;;;;24.42;50.40;101215.06;5014746;28;64618;-60
2021/08/11 08:24:54;;;;;;;;;4.00;2.00;;;;;24.56;50.13;101220.41;5015339;28;45967;-61
2021/08/11 08:27:24;;;;;;;;;2.00;1.50;;;;;24.67;49.82;101216.22;5015496;28;45512;-61
2021/08/11 08:29:50;;;;;;;;;4.00;4.00;;;;;24.79;49.09;101214.53;5015688;28;45438;-61
2021/08/11 08:32:15;;;;;;;;;2.75;2.75;;;;;24.91;48.98;101212.00;5015544;28;45232;-60
2021/08/11 08:34:41;;;;;;;;;4.75;2.25;;;;;25.09;49.05;101215.81;5029733;28;70813;-60
2021/08/11 08:37:06;;;;;;;;;2.50;2.50;;;;;25.25;48.23;101219.84;5015283;28;45166;-61
2021/08/11 08:39:31;;;;;;;;;2.25;1.50;;;;;25.37;47.90;101220.81;5016884;28;45261;-61
2021/08/11 08:41:57;;;;;;;;;1.75;1.00;;;;;25.46;47.06;101224.06;5017761;28;70474;-60
2021/08/11 08:44:22;;;;;;;;;2.00;2.00;;;;;25.51;47.27;101224.25;5017328;28;45793;-60
2021/08/11 08:46:48;;;;;;;;;3.25;3.25;;;;;25.57;47.21;101226.06;5017984;28;66051;-61
2021/08/11 08:49:16;;;;;;;;;3.50;2.00;;;;;25.65;47.58;101222.28;5000292;28;60111;-60
2021/08/11 08:51:45;;;;;;;;;3.00;3.00;;;;;25.75;46.86;101221.78;5001014;28;45512;-60
2021/08/11 08:54:11;;;;;;;;;3.75;2.00;;;;;25.83;46.45;101213.44;5017253;28;45996;-61
2021/08/11 08:56:37;;;;;;;;;2.50;2.50;;;;;25.86;45.94;101226.44;5018451;28;45696;-60
2021/08/11 08:59:02;;;;;;;;;2.25;2.25;;;;;25.88;46.03;101216.28;5017430;28;45459;-61
2021/08/11 09:01:27;;;;;;;;;1.50;1.25;;;;;25.93;45.77;101224.50;5016283;28;69321;-61
2021/08/11 09:03:53;;;;;;;;;1.75;1.75;;;;;26.02;45.53;101224.19;5016615;28;63612;-61
2021/08/11 09:06:18;;;;;;;;;3.00;2.00;;;;;26.18;45.20;101228.22;5016508;28;64161;-61
2021/08/11 09:09:13;;;;;;;;;1.00;1.00;;;;;26.23;45.05;101220.28;5017779;28;67250;-60
2021/08/11 09:11:40;;;;;;;;;6.00;2.00;;;;;26.26;45.33;101227.91;5008918;28;45536;-61
2021/08/11 09:14:16;;;;;;;;;2.00;1.75;;;;;26.37;44.73;101229.88;5018181;28;45321;-61
2021/08/11 09:16:46;;;;;;;;;1.75;1.75;;;;;26.51;44.76;101225.13;5018286;28;45841;-61
2021/08/11 09:19:11;;;;;;;;;2.00;2.00;;;;;26.71;44.42;101225.94;5018521;28;45238;-60
2021/08/11 09:21:37;;;;;;;;;2.00;2.00;;;;;26.89;44.52;101219.72;5018013;28;49269;-61
2021/08/11 09:24:02;;;;;;;;;3.50;3.00;;;;;27.04;44.32;101212.00;5015822;28;70778;-60
2021/08/11 09:26:30;;;;;;;;;1.75;1.75;;;;;27.16;43.36;101214.75;4999145;28;72358;-61
2021/08/11 09:28:55;;;;;;;;;3.00;3.00;;;;;27.27;43.45;101204.25;5000334;28;45598;-61
2021/08/11 09:31:22;;;;;;;;;2.00;2.00;;;;;27.34;42.71;101211.16;4999004;28;66598;-61
2021/08/11 09:33:51;;;;;;;;;4.25;3.00;;;;;27.36;42.33;101202.81;5017719;28;45434;-61
2021/08/11 09:36:16;;;;;;;;;3.00;3.00;;;;;27.35;41.91;101204.72;5017781;28;45411;-60
2021/08/11 09:38:59;;;;;;;;;5.25;3.00;;;;;27.30;42.80;101207.28;5017778;28;45166;-61
2021/08/11 09:41:25;;;;;;;;;4.00;4.00;;;;;27.29;43.04;101212.91;5017890;28;45526;-61
2021/08/11 09:44:08;;;;;;;;;3.25;3.25;;;;;27.27;42.45;101215.03;5017700;28;46005;-61
2021/08/11 09:46:33;;;;;;;;;3.00;3.00;;;;;27.26;42.46;101216.88;5016678;28;45498;-61
2021/08/11 09:48:59;;;;;;;;;2.00;2.00;;;;;27.23;42.21;101211.97;5017909;28;45603;-61
2021/08/11 09:51:25;;;;;;;;;4.75;3.00;;;;;27.19;42.65;101214.31;5016179;28;45588;-61
2021/08/11 09:53:50;;;;;;;;;3.25;3.25;;;;;27.21;42.16;101216.75;4998802;28;71105;-61
2021/08/11 09:56:16;;;;;;;;;4.00;4.00;;;;;27.23;42.75;101214.66;5016739;28;63270;-59
2021/08/11 09:58:46;;;;;;;;;4.50;4.00;;;;;27.20;42.46;101210.56;5016619;28;69302;-61
2021/08/11 10:01:12;;;;;;;;;2.75;2.75;;;;;27.21;43.26;101208.66;5015667;28;45582;-61
2021/08/11 10:04:00;;;;;;;;;4.00;4.00;;;;;27.20;43.13;101215.13;5017182;28;46013;-61
2021/08/11 10:06:32;;;;;;;;;5.75;3.75;;;;;27.24;42.68;101219.00;5017064;28;45735;-61
2021/08/11 10:09:21;;;;;;;;;4.50;4.50;;;;;27.32;42.39;101212.44;5017526;28;45363;-61
2021/08/11 10:11:49;;;;;;;;;3.25;3.25;;;;;27.40;41.62;101215.63;5010799;28;45587;-61
2021/08/11 10:14:16;;;;;;;;;5.25;4.00;;;;;27.48;41.22;101210.97;5015307;28;47925;-61
2021/08/11 10:16:41;;;;;;;;;5.00;3.50;;;;;27.58;41.27;101205.00;5017068;28;45347;-62
2021/08/11 10:19:07;;;;;;;;;4.50;4.25;;;;;27.74;40.77;101209.69;5017130;28;45340;-61
2021/08/11 10:21:53;;;;;;;;;3.25;3.25;;;;;27.90;41.49;101210.88;5017268;28;45534;-60
2021/08/11 10:24:18;;;;;;;;;5.00;5.00;;;;;28.07;41.39;101202.03;5015491;28;50599;-61
2021/08/11 10:26:47;;;;;;;;;4.75;4.75;;;;;28.25;40.70;101207.31;5015348;28;49879;-60
2021/08/11 10:29:12;;;;;;;;;6.00;5.00;;;;;28.46;41.13;101204.19;5015184;28;45313;-61
2021/08/11 10:31:38;;;;;;;;;11.00;8.00;;;;;28.56;40.73;101207.94;5016016;28;65520;-61
2021/08/11 10:34:03;;;;;;;;;5.25;4.25;;;;;28.62;40.21;101205.31;5014393;28;70527;-61
2021/08/11 10:36:29;;;;;;;;;3.00;3.00;;;;;28.64;40.12;101201.31;5016495;28;45276;-61
2021/08/11 10:38:55;;;;;;;;;7.75;5.50;;;;;28.61;39.83;101212.63;5016674;28;45282;-61
2021/08/11 10:41:26;;;;;;;;;4.25;4.25;;;;;28.58;39.35;101207.69;5016484;28;45641;-61
2021/08/11 10:43:51;;;;;;;;;6.75;5.50;;;;;28.57;39.26;101206.88;5015296;28;46117;-62
2021/08/11 10:46:17;;;;;;;;;5.25;5.25;;;;;28.52;39.89;101208.63;4997676;28;73022;-61
2021/08/11 10:48:42;;;;;;;;;5.00;4.75;;;;;28.45;38.98;101214.19;4995758;28;66662;-61
2021/08/11 10:51:07;;;;;;;;;9.00;6.25;;;;;28.31;39.42;101208.25;5008183;28;45423;-61
2021/08/11 10:53:33;;;;;;;;;7.00;5.50;;;;;28.12;39.96;101216.50;5015049;28;45863;-61
2021/08/11 10:55:59;;;;;;;;;8.75;4.50;;;;;27.93;40.45;101207.69;5013427;28;45404;-61
2021/08/11 10:58:46;;;;;;;;;7.00;6.00;;;;;27.68;40.41;101206.03;5015490;28;45512;-61
2021/08/11 11:01:35;;;;;;;;;4.75;4.75;;;;;27.53;41.40;101208.41;5013175;28;45466;-61
2021/08/11 11:04:01;;;;;;;;;5.50;5.00;;;;;27.50;40.71;101204.28;5012333;28;45367;-61
2021/08/11 11:06:49;;;;;;;;;4.75;4.75;;;;;27.60;40.47;101197.47;5015047;28;45792;-61
2021/08/11 11:09:21;;;;;;;;;6.00;5.75;;;;;27.72;40.12;101195.63;5015044;28;45225;-61
2021/08/11 11:11:46;;;;;;;;;4.00;4.00;;;;;27.82;40.12;101200.41;5015203;28;45481;-61
2021/08/11 11:14:43;;;;;;;;;4.75;4.00;;;;;27.97;39.91;101198.06;5014525;28;45883;-61
2021/08/11 11:17:09;;;;;;;;;4.25;4.00;;;;;28.16;39.43;101191.72;5011844;28;48027;-61
2021/08/11 11:19:34;;;;;;;;;6.00;6.00;;;;;28.31;40.07;101193.91;5011978;28;69242;-61
2021/08/11 11:22:32;;;;;;;;;8.75;7.50;;;;;28.44;39.28;101188.22;4996137;28;69451;-62
2021/08/11 11:24:57;;;;;;;;;9.00;8.00;;;;;28.62;38.76;101186.38;5013646;28;45362;-61